sensor_id;sensor_type;location;lat;lon;timestamp;P1;durP1;ratioP1;P2;durP2;ratioP2
45812;SDS011;31519;45.408;10.962;2022-08-07T00:00:29;3.08;;;2.28;;
45812;SDS011;31519;45.408;10.962;2022-08-07T00:03:07;4.80;;;2.10;;
45812;SDS011;31519;45.408;10.962;2022-08-07T00:05:40;12.50;;;1.65;;
45812;SDS011;31519;45.408;10.962;2022-08-07T00:08:12;3.45;;;1.60;;
45812;SDS011;31519;45.408;10.962;2022-08-07T00:10:41;4.82;;;2.20;;
45812;SDS011;31519;45.408;10.962;2022-08-07T00:13:23;3.53;;;1.92;;
45812;SDS011;31519;45.408;10.962;2022-08-07T00:15:54;2.47;;;1.60;;
45812;SDS011;31519;45.408;10.962;2022-08-07T00:18:24;2.38;;;1.67;;
45812;SDS011;31519;45.408;10.962;2022-08-07T00:20:56;4.53;;;2.38;;
45812;SDS011;31519;45.408;10.962;2022-08-07T00:23:49;4.25;;;2.00;;
45812;SDS011;31519;45.408;10.962;2022-08-07T00:26:18;13.45;;;2.55;;
45812;SDS011;31519;45.408;10.962;2022-08-07T00:29:06;3.20;;;2.05;;
45812;SDS011;31519;45.408;10.962;2022-08-07T00:31:35;6.53;;;2.10;;
45812;SDS011;31519;45.408;10.962;2022-08-07T00:34:07;5.65;;;2.70;;
45812;SDS011;31519;45.408;10.962;2022-08-07T00:36:36;10.70;;;2.65;;
45812;SDS011;31519;45.408;10.962;2022-08-07T00:39:13;12.43;;;3.63;;
45812;SDS011;31519;45.408;10.962;2022-08-07T00:41:47;14.30;;;3.88;;
45812;SDS011;31519;45.408;10.962;2022-08-07T00:44:40;17.45;;;5.22;;
45812;SDS011;31519;45.408;10.962;2022-08-07T00:47:09;17.85;;;4.57;;
45812;SDS011;31519;45.408;10.962;2022-08-07T00:49:57;13.80;;;3.92;;
45812;SDS011;31519;45.408;10.962;2022-08-07T00:52:45;22.65;;;3.75;;
45812;SDS011;31519;45.408;10.962;2022-08-07T00:55:14;11.02;;;3.38;;
45812;SDS011;31519;45.408;10.962;2022-08-07T00:57:52;13.90;;;3.22;;
45812;SDS011;31519;45.408;10.962;2022-08-07T01:00:22;22.00;;;3.00;;
45812;SDS011;31519;45.408;10.962;2022-08-07T01:02:52;10.13;;;3.00;;
45812;SDS011;31519;45.408;10.962;2022-08-07T01:05:21;5.32;;;2.50;;
45812;SDS011;31519;45.408;10.962;2022-08-07T01:07:51;4.88;;;2.25;;
45812;SDS011;31519;45.408;10.962;2022-08-07T01:10:22;9.73;;;3.13;;
45812;SDS011;31519;45.408;10.962;2022-08-07T01:12:51;5.78;;;2.65;;
45812;SDS011;31519;45.408;10.962;2022-08-07T01:15:25;8.48;;;3.00;;
45812;SDS011;31519;45.408;10.962;2022-08-07T01:18:15;5.97;;;2.67;;
45812;SDS011;31519;45.408;10.962;2022-08-07T01:21:02;8.32;;;2.53;;
45812;SDS011;31519;45.408;10.962;2022-08-07T01:23:55;6.50;;;3.05;;
45812;SDS011;31519;45.408;10.962;2022-08-07T01:26:25;5.13;;;2.85;;
45812;SDS011;31519;45.408;10.962;2022-08-07T01:28:56;7.40;;;2.92;;
45812;SDS011;31519;45.408;10.962;2022-08-07T01:31:26;4.95;;;2.83;;
45812;SDS011;31519;45.408;10.962;2022-08-07T01:34:13;7.07;;;2.85;;
45812;SDS011;31519;45.408;10.962;2022-08-07T01:36:43;11.38;;;4.30;;
45812;SDS011;31519;45.408;10.962;2022-08-07T01:39:25;5.57;;;2.95;;
45812;SDS011;31519;45.408;10.962;2022-08-07T01:42:14;4.05;;;2.50;;
45812;SDS011;31519;45.408;10.962;2022-08-07T01:45:04;4.20;;;2.72;;
45812;SDS011;31519;45.408;10.962;2022-08-07T01:47:43;5.07;;;2.72;;
45812;SDS011;31519;45.408;10.962;2022-08-07T01:50:31;6.45;;;2.72;;
45812;SDS011;31519;45.408;10.962;2022-08-07T01:53:12;7.82;;;3.00;;
45812;SDS011;31519;45.408;10.962;2022-08-07T01:56:00;8.38;;;2.72;;
45812;SDS011;31519;45.408;10.962;2022-08-07T01:58:36;7.97;;;3.17;;
45812;SDS011;31519;45.408;10.962;2022-08-07T02:01:13;5.57;;;2.53;;
45812;SDS011;31519;45.408;10.962;2022-08-07T02:04:17;5.60;;;2.60;;
45812;SDS011;31519;45.408;10.962;2022-08-07T02:07:00;6.90;;;2.70;;
45812;SDS011;31519;45.408;10.962;2022-08-07T02:09:32;4.88;;;2.67;;
45812;SDS011;31519;45.408;10.962;2022-08-07T02:12:21;7.43;;;2.88;;
45812;SDS011;31519;45.408;10.962;2022-08-07T02:14:59;7.70;;;2.97;;
45812;SDS011;31519;45.408;10.962;2022-08-07T02:17:37;7.65;;;2.60;;
45812;SDS011;31519;45.408;10.962;2022-08-07T02:20:17;5.30;;;2.47;;
45812;SDS011;31519;45.408;10.962;2022-08-07T02:22:54;6.82;;;2.42;;
45812;SDS011;31519;45.408;10.962;2022-08-07T02:25:31;5.05;;;2.50;;
45812;SDS011;31519;45.408;10.962;2022-08-07T02:28:24;4.55;;;1.85;;
45812;SDS011;31519;45.408;10.962;2022-08-07T02:31:03;3.08;;;2.03;;
45812;SDS011;31519;45.408;10.962;2022-08-07T02:33:53;8.15;;;2.10;;
45812;SDS011;31519;45.408;10.962;2022-08-07T02:36:43;3.95;;;2.53;;
45812;SDS011;31519;45.408;10.962;2022-08-07T02:39:16;10.23;;;2.38;;
45812;SDS011;31519;45.408;10.962;2022-08-07T02:42:08;4.85;;;2.33;;
45812;SDS011;31519;45.408;10.962;2022-08-07T02:44:45;6.57;;;2.17;;
45812;SDS011;31519;45.408;10.962;2022-08-07T02:47:24;4.13;;;2.15;;
45812;SDS011;31519;45.408;10.962;2022-08-07T02:50:01;2.75;;;2.08;;
45812;SDS011;31519;45.408;10.962;2022-08-07T02:55:17;4.07;;;2.35;;
45812;SDS011;31519;45.408;10.962;2022-08-07T02:58:12;4.25;;;2.30;;
45812;SDS011;31519;45.408;10.962;2022-08-07T03:00:51;9.65;;;2.05;;
45812;SDS011;31519;45.408;10.962;2022-08-07T03:06:24;5.43;;;3.70;;
45812;SDS011;31519;45.408;10.962;2022-08-07T03:09:03;8.98;;;2.30;;
45812;SDS011;31519;45.408;10.962;2022-08-07T03:11:38;4.80;;;2.38;;
45812;SDS011;31519;45.408;10.962;2022-08-07T03:14:27;3.70;;;2.70;;
45812;SDS011;31519;45.408;10.962;2022-08-07T03:16:56;3.75;;;2.45;;
45812;SDS011;31519;45.408;10.962;2022-08-07T03:19:25;4.15;;;2.97;;
45812;SDS011;31519;45.408;10.962;2022-08-07T03:21:57;6.07;;;3.15;;
45812;SDS011;31519;45.408;10.962;2022-08-07T03:24:26;6.38;;;2.80;;
45812;SDS011;31519;45.408;10.962;2022-08-07T03:27:00;3.90;;;2.63;;
45812;SDS011;31519;45.408;10.962;2022-08-07T03:29:48;2.95;;;2.03;;
45812;SDS011;31519;45.408;10.962;2022-08-07T03:32:36;2.70;;;2.50;;
45812;SDS011;31519;45.408;10.962;2022-08-07T03:35:18;2.72;;;2.35;;
45812;SDS011;31519;45.408;10.962;2022-08-07T03:37:56;4.38;;;1.88;;
45812;SDS011;31519;45.408;10.962;2022-08-07T03:40:31;5.00;;;1.95;;
45812;SDS011;31519;45.408;10.962;2022-08-07T03:43:09;3.80;;;2.15;;
45812;SDS011;31519;45.408;10.962;2022-08-07T03:45:46;1.30;;;1.20;;
45812;SDS011;31519;45.408;10.962;2022-08-07T03:48:21;2.33;;;1.48;;
45812;SDS011;31519;45.408;10.962;2022-08-07T03:50:53;3.67;;;1.55;;
45812;SDS011;31519;45.408;10.962;2022-08-07T03:53:36;2.80;;;1.90;;
45812;SDS011;31519;45.408;10.962;2022-08-07T03:56:27;2.53;;;1.80;;
45812;SDS011;31519;45.408;10.962;2022-08-07T03:59:04;2.88;;;2.00;;
45812;SDS011;31519;45.408;10.962;2022-08-07T04:01:45;2.88;;;1.83;;
45812;SDS011;31519;45.408;10.962;2022-08-07T04:04:20;2.83;;;1.80;;
45812;SDS011;31519;45.408;10.962;2022-08-07T04:06:55;3.03;;;1.85;;
45812;SDS011;31519;45.408;10.962;2022-08-07T04:09:28;4.07;;;1.25;;
45812;SDS011;31519;45.408;10.962;2022-08-07T04:12:20;2.13;;;1.40;;
45812;SDS011;31519;45.408;10.962;2022-08-07T04:14:57;3.95;;;1.67;;
45812;SDS011;31519;45.408;10.962;2022-08-07T04:17:30;3.03;;;2.15;;
45812;SDS011;31519;45.408;10.962;2022-08-07T04:20:19;2.88;;;1.83;;
45812;SDS011;31519;45.408;10.962;2022-08-07T04:22:52;4.10;;;1.77;;
45812;SDS011;31519;45.408;10.962;2022-08-07T04:25:34;4.82;;;1.48;;
45812;SDS011;31519;45.408;10.962;2022-08-07T04:28:10;2.88;;;2.10;;
45812;SDS011;31519;45.408;10.962;2022-08-07T04:30:41;6.60;;;2.10;;
45812;SDS011;31519;45.408;10.962;2022-08-07T04:33:33;4.65;;;1.98;;
45812;SDS011;31519;45.408;10.962;2022-08-07T04:36:04;2.92;;;2.00;;
45812;SDS011;31519;45.408;10.962;2022-08-07T04:38:38;5.25;;;2.13;;
45812;SDS011;31519;45.408;10.962;2022-08-07T04:41:08;9.73;;;2.30;;
45812;SDS011;31519;45.408;10.962;2022-08-07T04:43:49;1.77;;;1.67;;
45812;SDS011;31519;45.408;10.962;2022-08-07T04:46:52;9.07;;;2.28;;
45812;SDS011;31519;45.408;10.962;2022-08-07T04:49:52;3.15;;;1.73;;
45812;SDS011;31519;45.408;10.962;2022-08-07T04:52:42;2.30;;;1.77;;
45812;SDS011;31519;45.408;10.962;2022-08-07T04:58:36;6.75;;;1.80;;
45812;SDS011;31519;45.408;10.962;2022-08-07T05:04:06;4.35;;;1.90;;
45812;SDS011;31519;45.408;10.962;2022-08-07T05:06:57;3.45;;;1.77;;
45812;SDS011;31519;45.408;10.962;2022-08-07T05:09:59;7.97;;;1.95;;
45812;SDS011;31519;45.408;10.962;2022-08-07T05:12:46;12.60;;;2.40;;
45812;SDS011;31519;45.408;10.962;2022-08-07T05:15:35;6.43;;;2.28;;
45812;SDS011;31519;45.408;10.962;2022-08-07T05:18:16;5.78;;;2.00;;
45812;SDS011;31519;45.408;10.962;2022-08-07T05:20:52;5.78;;;2.28;;
45812;SDS011;31519;45.408;10.962;2022-08-07T05:23:26;8.07;;;2.15;;
45812;SDS011;31519;45.408;10.962;2022-08-07T05:26:03;2.92;;;1.88;;
45812;SDS011;31519;45.408;10.962;2022-08-07T05:28:44;2.17;;;1.75;;
45812;SDS011;31519;45.408;10.962;2022-08-07T05:31:22;4.90;;;2.28;;
45812;SDS011;31519;45.408;10.962;2022-08-07T05:34:08;3.22;;;1.95;;
45812;SDS011;31519;45.408;10.962;2022-08-07T05:36:49;5.65;;;2.53;;
45812;SDS011;31519;45.408;10.962;2022-08-07T05:39:28;5.00;;;2.33;;
45812;SDS011;31519;45.408;10.962;2022-08-07T05:42:18;6.72;;;2.30;;
45812;SDS011;31519;45.408;10.962;2022-08-07T05:45:08;10.57;;;2.55;;
45812;SDS011;31519;45.408;10.962;2022-08-07T05:48:02;6.32;;;2.28;;
45812;SDS011;31519;45.408;10.962;2022-08-07T05:50:44;5.53;;;2.78;;
45812;SDS011;31519;45.408;10.962;2022-08-07T05:53:19;4.97;;;2.20;;
45812;SDS011;31519;45.408;10.962;2022-08-07T05:56:08;7.32;;;2.50;;
45812;SDS011;31519;45.408;10.962;2022-08-07T05:58:45;5.28;;;2.42;;
45812;SDS011;31519;45.408;10.962;2022-08-07T06:01:23;4.60;;;2.05;;
45812;SDS011;31519;45.408;10.962;2022-08-07T06:04:05;7.53;;;2.58;;
45812;SDS011;31519;45.408;10.962;2022-08-07T06:06:39;6.78;;;2.42;;
45812;SDS011;31519;45.408;10.962;2022-08-07T06:09:15;4.53;;;2.53;;
45812;SDS011;31519;45.408;10.962;2022-08-07T06:11:48;7.35;;;2.50;;
45812;SDS011;31519;45.408;10.962;2022-08-07T06:14:21;2.63;;;1.92;;
45812;SDS011;31519;45.408;10.962;2022-08-07T06:17:02;4.13;;;2.55;;
45812;SDS011;31519;45.408;10.962;2022-08-07T06:19:39;5.22;;;2.63;;
45812;SDS011;31519;45.408;10.962;2022-08-07T06:22:29;3.38;;;1.90;;
45812;SDS011;31519;45.408;10.962;2022-08-07T06:25:27;5.25;;;2.28;;
45812;SDS011;31519;45.408;10.962;2022-08-07T06:28:04;9.07;;;2.15;;
45812;SDS011;31519;45.408;10.962;2022-08-07T06:30:41;4.43;;;2.35;;
45812;SDS011;31519;45.408;10.962;2022-08-07T06:33:18;2.58;;;2.30;;
45812;SDS011;31519;45.408;10.962;2022-08-07T06:35:50;4.38;;;2.28;;
45812;SDS011;31519;45.408;10.962;2022-08-07T06:38:43;2.65;;;1.95;;
45812;SDS011;31519;45.408;10.962;2022-08-07T06:41:37;5.20;;;2.47;;
45812;SDS011;31519;45.408;10.962;2022-08-07T06:44:45;4.60;;;2.08;;
45812;SDS011;31519;45.408;10.962;2022-08-07T06:47:20;5.00;;;2.55;;
45812;SDS011;31519;45.408;10.962;2022-08-07T06:49:50;8.40;;;2.20;;
45812;SDS011;31519;45.408;10.962;2022-08-07T06:52:34;6.72;;;2.10;;
45812;SDS011;31519;45.408;10.962;2022-08-07T06:55:14;7.00;;;1.90;;
45812;SDS011;31519;45.408;10.962;2022-08-07T06:58:11;2.25;;;1.70;;
45812;SDS011;31519;45.408;10.962;2022-08-07T07:00:52;1.98;;;1.70;;
45812;SDS011;31519;45.408;10.962;2022-08-07T07:03:23;6.88;;;2.10;;
45812;SDS011;31519;45.408;10.962;2022-08-07T07:06:12;3.05;;;1.67;;
45812;SDS011;31519;45.408;10.962;2022-08-07T07:08:50;3.30;;;1.77;;
45812;SDS011;31519;45.408;10.962;2022-08-07T07:11:20;9.05;;;2.05;;
45812;SDS011;31519;45.408;10.962;2022-08-07T07:14:10;3.92;;;2.47;;
45812;SDS011;31519;45.408;10.962;2022-08-07T07:16:41;4.95;;;1.90;;
45812;SDS011;31519;45.408;10.962;2022-08-07T07:19:22;3.00;;;1.95;;
45812;SDS011;31519;45.408;10.962;2022-08-07T07:22:16;2.00;;;1.70;;
45812;SDS011;31519;45.408;10.962;2022-08-07T07:25:06;3.83;;;2.00;;
45812;SDS011;31519;45.408;10.962;2022-08-07T07:28:04;4.43;;;2.35;;
45812;SDS011;31519;45.408;10.962;2022-08-07T07:31:07;5.35;;;1.90;;
45812;SDS011;31519;45.408;10.962;2022-08-07T07:33:49;3.03;;;1.63;;
45812;SDS011;31519;45.408;10.962;2022-08-07T07:36:24;3.55;;;2.35;;
45812;SDS011;31519;45.408;10.962;2022-08-07T07:38:59;6.90;;;2.45;;
45812;SDS011;31519;45.408;10.962;2022-08-07T07:41:30;2.40;;;1.98;;
45812;SDS011;31519;45.408;10.962;2022-08-07T07:44:21;2.03;;;1.83;;
45812;SDS011;31519;45.408;10.962;2022-08-07T07:46:53;3.40;;;1.48;;
45812;SDS011;31519;45.408;10.962;2022-08-07T07:49:40;3.13;;;1.80;;
45812;SDS011;31519;45.408;10.962;2022-08-07T07:52:32;4.93;;;1.70;;
45812;SDS011;31519;45.408;10.962;2022-08-07T07:55:02;2.45;;;1.60;;
45812;SDS011;31519;45.408;10.962;2022-08-07T07:57:32;3.08;;;1.77;;
45812;SDS011;31519;45.408;10.962;2022-08-07T08:00:19;1.92;;;1.83;;
45812;SDS011;31519;45.408;10.962;2022-08-07T08:03:05;12.55;;;2.25;;
45812;SDS011;31519;45.408;10.962;2022-08-07T08:05:57;3.88;;;1.90;;
45812;SDS011;31519;45.408;10.962;2022-08-07T08:08:27;4.53;;;1.95;;
45812;SDS011;31519;45.408;10.962;2022-08-07T08:11:06;2.08;;;1.85;;
45812;SDS011;31519;45.408;10.962;2022-08-07T08:13:57;3.83;;;2.25;;
45812;SDS011;31519;45.408;10.962;2022-08-07T08:16:28;2.00;;;1.80;;
45812;SDS011;31519;45.408;10.962;2022-08-07T08:19:06;4.78;;;2.08;;
45812;SDS011;31519;45.408;10.962;2022-08-07T08:21:57;4.72;;;1.80;;
45812;SDS011;31519;45.408;10.962;2022-08-07T08:24:45;4.68;;;1.60;;
45812;SDS011;31519;45.408;10.962;2022-08-07T08:27:54;1.60;;;1.50;;
45812;SDS011;31519;45.408;10.962;2022-08-07T08:30:32;1.80;;;1.67;;
45812;SDS011;31519;45.408;10.962;2022-08-07T08:33:09;1.90;;;1.50;;
45812;SDS011;31519;45.408;10.962;2022-08-07T08:35:48;5.38;;;1.70;;
45812;SDS011;31519;45.408;10.962;2022-08-07T08:38:24;1.55;;;1.30;;
45812;SDS011;31519;45.408;10.962;2022-08-07T08:43:56;1.67;;;1.58;;
45812;SDS011;31519;45.408;10.962;2022-08-07T08:46:31;5.75;;;1.63;;
45812;SDS011;31519;45.408;10.962;2022-08-07T08:51:37;2.40;;;1.40;;
45812;SDS011;31519;45.408;10.962;2022-08-07T08:57:10;4.07;;;1.70;;
45812;SDS011;31519;45.408;10.962;2022-08-07T08:59:46;4.10;;;1.50;;
45812;SDS011;31519;45.408;10.962;2022-08-07T09:05:25;2.22;;;1.63;;
45812;SDS011;31519;45.408;10.962;2022-08-07T09:11:29;5.47;;;1.65;;
45812;SDS011;31519;45.408;10.962;2022-08-07T09:14:30;4.32;;;1.73;;
45812;SDS011;31519;45.408;10.962;2022-08-07T09:17:08;4.57;;;1.80;;
45812;SDS011;31519;45.408;10.962;2022-08-07T09:19:45;2.92;;;1.80;;
45812;SDS011;31519;45.408;10.962;2022-08-07T09:28:37;4.70;;;1.70;;
45812;SDS011;31519;45.408;10.962;2022-08-07T09:35:19;12.70;;;1.85;;
45812;SDS011;31519;45.408;10.962;2022-08-07T09:49:58;4.00;;;1.50;;
45812;SDS011;31519;45.408;10.962;2022-08-07T09:52:47;1.65;;;1.42;;
45812;SDS011;31519;45.408;10.962;2022-08-07T09:55:36;3.05;;;1.30;;
45812;SDS011;31519;45.408;10.962;2022-08-07T09:58:44;2.83;;;1.40;;
45812;SDS011;31519;45.408;10.962;2022-08-07T10:07:17;1.90;;;1.80;;
45812;SDS011;31519;45.408;10.962;2022-08-07T10:10:22;3.70;;;1.35;;
45812;SDS011;31519;45.408;10.962;2022-08-07T10:32:52;6.85;;;1.50;;
45812;SDS011;31519;45.408;10.962;2022-08-07T10:35:31;2.35;;;1.17;;
45812;SDS011;31519;45.408;10.962;2022-08-07T10:38:38;1.50;;;1.33;;
45812;SDS011;31519;45.408;10.962;2022-08-07T10:41:19;3.03;;;1.50;;
45812;SDS011;31519;45.408;10.962;2022-08-07T10:47:14;1.33;;;1.23;;
45812;SDS011;31519;45.408;10.962;2022-08-07T10:50:33;4.03;;;1.20;;
45812;SDS011;31519;45.408;10.962;2022-08-07T11:08:13;1.52;;;1.33;;
45812;SDS011;31519;45.408;10.962;2022-08-07T11:11:02;1.98;;;1.30;;
45812;SDS011;31519;45.408;10.962;2022-08-07T11:16:57;1.67;;;1.23;;
45812;SDS011;31519;45.408;10.962;2022-08-07T11:19:37;1.48;;;1.20;;
45812;SDS011;31519;45.408;10.962;2022-08-07T11:33:23;1.60;;;1.27;;
45812;SDS011;31519;45.408;10.962;2022-08-07T11:42:14;1.50;;;1.40;;
45812;SDS011;31519;45.408;10.962;2022-08-07T11:45:09;1.35;;;1.25;;
45812;SDS011;31519;45.408;10.962;2022-08-07T12:09:23;1.30;;;1.20;;
45812;SDS011;31519;45.408;10.962;2022-08-07T12:14:48;1.20;;;1.10;;
45812;SDS011;31519;45.408;10.962;2022-08-07T12:17:48;1.23;;;1.13;;
45812;SDS011;31519;45.408;10.962;2022-08-07T12:20:29;1.65;;;1.30;;
45812;SDS011;31519;45.408;10.962;2022-08-07T12:23:10;1.52;;;1.27;;
45812;SDS011;31519;45.408;10.962;2022-08-07T12:32:08;1.25;;;1.15;;
45812;SDS011;31519;45.408;10.962;2022-08-07T12:34:44;1.25;;;1.15;;
45812;SDS011;31519;45.408;10.962;2022-08-07T12:37:23;1.10;;;1.10;;
45812;SDS011;31519;45.408;10.962;2022-08-07T12:40:24;6.20;;;1.48;;
45812;SDS011;31519;45.408;10.962;2022-08-07T12:43:15;1.65;;;1.23;;
45812;SDS011;31519;45.408;10.962;2022-08-07T12:52:10;1.67;;;1.13;;
45812;SDS011;31519;45.408;10.962;2022-08-07T12:57:36;1.60;;;1.42;;
45812;SDS011;31519;45.408;10.962;2022-08-07T13:22:25;1.98;;;1.20;;
45812;SDS011;31519;45.408;10.962;2022-08-07T13:25:04;1.73;;;1.00;;
45812;SDS011;31519;45.408;10.962;2022-08-07T13:28:03;1.48;;;1.38;;
45812;SDS011;31519;45.408;10.962;2022-08-07T13:30:50;2.45;;;1.10;;
45812;SDS011;31519;45.408;10.962;2022-08-07T13:33:37;1.00;;;1.00;;
45812;SDS011;31519;45.408;10.962;2022-08-07T13:36:51;1.15;;;1.10;;
45812;SDS011;31519;45.408;10.962;2022-08-07T13:39:42;2.05;;;1.20;;
45812;SDS011;31519;45.408;10.962;2022-08-07T13:42:37;4.53;;;1.10;;
45812;SDS011;31519;45.408;10.962;2022-08-07T13:45:07;3.10;;;1.20;;
45812;SDS011;31519;45.408;10.962;2022-08-07T13:47:58;1.00;;;0.98;;
45812;SDS011;31519;45.408;10.962;2022-08-07T13:50:36;1.70;;;1.05;;
45812;SDS011;31519;45.408;10.962;2022-08-07T13:53:34;0.97;;;0.97;;
45812;SDS011;31519;45.408;10.962;2022-08-07T13:56:27;1.00;;;1.00;;
45812;SDS011;31519;45.408;10.962;2022-08-07T13:59:16;1.42;;;1.23;;
45812;SDS011;31519;45.408;10.962;2022-08-07T14:04:33;1.35;;;1.23;;
45812;SDS011;31519;45.408;10.962;2022-08-07T14:07:21;1.58;;;1.20;;
45812;SDS011;31519;45.408;10.962;2022-08-07T14:09:55;2.17;;;1.17;;
45812;SDS011;31519;45.408;10.962;2022-08-07T14:12:53;1.30;;;1.20;;
45812;SDS011;31519;45.408;10.962;2022-08-07T14:23:35;1.00;;;1.00;;
45812;SDS011;31519;45.408;10.962;2022-08-07T14:26:38;0.90;;;0.90;;
45812;SDS011;31519;45.408;10.962;2022-08-07T14:29:18;0.95;;;0.90;;
45812;SDS011;31519;45.408;10.962;2022-08-07T14:32:11;1.40;;;1.30;;
45812;SDS011;31519;45.408;10.962;2022-08-07T14:34:42;0.98;;;0.98;;
45812;SDS011;31519;45.408;10.962;2022-08-07T14:37:16;1.75;;;1.48;;
45812;SDS011;31519;45.408;10.962;2022-08-07T14:40:06;1.27;;;1.17;;
45812;SDS011;31519;45.408;10.962;2022-08-07T14:42:55;1.27;;;1.17;;
45812;SDS011;31519;45.408;10.962;2022-08-07T14:46:05;1.75;;;1.30;;
45812;SDS011;31519;45.408;10.962;2022-08-07T14:48:36;1.70;;;1.40;;
45812;SDS011;31519;45.408;10.962;2022-08-07T14:51:09;3.30;;;1.40;;
45812;SDS011;31519;45.408;10.962;2022-08-07T14:53:43;2.00;;;1.27;;
45812;SDS011;31519;45.408;10.962;2022-08-07T14:56:33;2.45;;;1.30;;
45812;SDS011;31519;45.408;10.962;2022-08-07T14:59:09;1.25;;;1.20;;
45812;SDS011;31519;45.408;10.962;2022-08-07T15:02:10;2.50;;;1.20;;
45812;SDS011;31519;45.408;10.962;2022-08-07T15:05:01;5.68;;;1.30;;
45812;SDS011;31519;45.408;10.962;2022-08-07T15:07:51;4.72;;;1.25;;
45812;SDS011;31519;45.408;10.962;2022-08-07T15:10:25;1.40;;;1.30;;
45812;SDS011;31519;45.408;10.962;2022-08-07T15:13:15;1.25;;;1.25;;
45812;SDS011;31519;45.408;10.962;2022-08-07T15:15:56;1.58;;;1.30;;
45812;SDS011;31519;45.408;10.962;2022-08-07T15:18:34;3.33;;;1.20;;
45812;SDS011;31519;45.408;10.962;2022-08-07T15:21:18;1.27;;;1.20;;
45812;SDS011;31519;45.408;10.962;2022-08-07T15:24:14;1.50;;;1.40;;
45812;SDS011;31519;45.408;10.962;2022-08-07T15:27:13;2.78;;;1.27;;
45812;SDS011;31519;45.408;10.962;2022-08-07T15:29:47;1.63;;;1.38;;
45812;SDS011;31519;45.408;10.962;2022-08-07T15:32:41;3.63;;;1.10;;
45812;SDS011;31519;45.408;10.962;2022-08-07T15:35:31;1.60;;;1.38;;
45812;SDS011;31519;45.408;10.962;2022-08-07T15:38:25;1.50;;;1.40;;
45812;SDS011;31519;45.408;10.962;2022-08-07T15:41:00;1.10;;;1.10;;
45812;SDS011;31519;45.408;10.962;2022-08-07T15:44:03;4.00;;;1.58;;
45812;SDS011;31519;45.408;10.962;2022-08-07T15:46:41;1.15;;;1.00;;
45812;SDS011;31519;45.408;10.962;2022-08-07T15:49:31;2.78;;;1.42;;
45812;SDS011;31519;45.408;10.962;2022-08-07T15:52:24;1.13;;;1.13;;
45812;SDS011;31519;45.408;10.962;2022-08-07T15:55:01;1.15;;;1.15;;
45812;SDS011;31519;45.408;10.962;2022-08-07T15:57:35;1.15;;;1.13;;
45812;SDS011;31519;45.408;10.962;2022-08-07T16:00:17;1.42;;;1.10;;
45812;SDS011;31519;45.408;10.962;2022-08-07T16:03:01;1.88;;;1.30;;
45812;SDS011;31519;45.408;10.962;2022-08-07T16:05:49;0.93;;;0.93;;
45812;SDS011;31519;45.408;10.962;2022-08-07T16:08:22;1.50;;;1.40;;
45812;SDS011;31519;45.408;10.962;2022-08-07T16:11:05;1.33;;;1.10;;
45812;SDS011;31519;45.408;10.962;2022-08-07T16:14:06;1.45;;;1.23;;
45812;SDS011;31519;45.408;10.962;2022-08-07T16:17:01;0.95;;;0.95;;
45812;SDS011;31519;45.408;10.962;2022-08-07T16:19:55;1.13;;;1.13;;
45812;SDS011;31519;45.408;10.962;2022-08-07T16:26:27;2.15;;;1.42;;
45812;SDS011;31519;45.408;10.962;2022-08-07T16:29:40;1.48;;;1.08;;
45812;SDS011;31519;45.408;10.962;2022-08-07T16:32:57;3.70;;;1.33;;
45812;SDS011;31519;45.408;10.962;2022-08-07T16:42:23;2.70;;;1.30;;
45812;SDS011;31519;45.408;10.962;2022-08-07T16:45:47;2.83;;;1.58;;
45812;SDS011;31519;45.408;10.962;2022-08-07T16:51:51;1.20;;;1.10;;
45812;SDS011;31519;45.408;10.962;2022-08-07T16:57:58;1.38;;;1.27;;
45812;SDS011;31519;45.408;10.962;2022-08-07T17:00:43;2.30;;;1.47;;
45812;SDS011;31519;45.408;10.962;2022-08-07T17:03:38;1.27;;;1.17;;
45812;SDS011;31519;45.408;10.962;2022-08-07T17:09:13;1.20;;;1.13;;
45812;SDS011;31519;45.408;10.962;2022-08-07T17:12:24;2.17;;;1.40;;
45812;SDS011;31519;45.408;10.962;2022-08-07T17:20:31;1.03;;;1.03;;
45812;SDS011;31519;45.408;10.962;2022-08-07T17:28:32;1.42;;;1.42;;
45812;SDS011;31519;45.408;10.962;2022-08-07T17:34:15;2.03;;;1.20;;
45812;SDS011;31519;45.408;10.962;2022-08-07T17:37:08;4.28;;;1.52;;
45812;SDS011;31519;45.408;10.962;2022-08-07T17:40:05;1.52;;;1.42;;
45812;SDS011;31519;45.408;10.962;2022-08-07T17:42:46;2.67;;;1.20;;
45812;SDS011;31519;45.408;10.962;2022-08-07T17:45:29;1.67;;;1.58;;
45812;SDS011;31519;45.408;10.962;2022-08-07T17:48:04;1.30;;;1.30;;
45812;SDS011;31519;45.408;10.962;2022-08-07T17:57:14;3.72;;;1.10;;
45812;SDS011;31519;45.408;10.962;2022-08-07T18:00:15;1.70;;;1.30;;
45812;SDS011;31519;45.408;10.962;2022-08-07T18:03:22;2.65;;;1.55;;
45812;SDS011;31519;45.408;10.962;2022-08-07T18:06:34;4.22;;;2.03;;
45812;SDS011;31519;45.408;10.962;2022-08-07T18:09:14;1.85;;;1.38;;
45812;SDS011;31519;45.408;10.962;2022-08-07T18:12:18;2.17;;;1.70;;
45812;SDS011;31519;45.408;10.962;2022-08-07T18:14:58;2.60;;;1.50;;
45812;SDS011;31519;45.408;10.962;2022-08-07T18:17:58;1.60;;;1.42;;
45812;SDS011;31519;45.408;10.962;2022-08-07T18:21:00;3.63;;;1.40;;
45812;SDS011;31519;45.408;10.962;2022-08-07T18:23:58;7.85;;;1.55;;
45812;SDS011;31519;45.408;10.962;2022-08-07T18:27:18;2.00;;;1.70;;
45812;SDS011;31519;45.408;10.962;2022-08-07T18:30:08;1.90;;;1.80;;
45812;SDS011;31519;45.408;10.962;2022-08-07T18:33:35;2.35;;;1.50;;
45812;SDS011;31519;45.408;10.962;2022-08-07T18:36:26;2.13;;;1.60;;
45812;SDS011;31519;45.408;10.962;2022-08-07T18:45:21;2.13;;;1.65;;
45812;SDS011;31519;45.408;10.962;2022-08-07T18:48:23;2.25;;;1.77;;
45812;SDS011;31519;45.408;10.962;2022-08-07T18:54:18;3.72;;;1.60;;
45812;SDS011;31519;45.408;10.962;2022-08-07T18:57:08;2.35;;;1.90;;
45812;SDS011;31519;45.408;10.962;2022-08-07T19:00:03;2.05;;;1.85;;
45812;SDS011;31519;45.408;10.962;2022-08-07T19:03:11;3.40;;;2.20;;
45812;SDS011;31519;45.408;10.962;2022-08-07T19:06:10;2.42;;;2.22;;
45812;SDS011;31519;45.408;10.962;2022-08-07T19:11:37;4.82;;;2.00;;
45812;SDS011;31519;45.408;10.962;2022-08-07T19:17:55;4.55;;;1.90;;
45812;SDS011;31519;45.408;10.962;2022-08-07T19:20:46;4.07;;;2.00;;
45812;SDS011;31519;45.408;10.962;2022-08-07T19:23:42;3.05;;;2.10;;
45812;SDS011;31519;45.408;10.962;2022-08-07T19:26:32;5.65;;;1.80;;
45812;SDS011;31519;45.408;10.962;2022-08-07T19:29:24;2.15;;;2.00;;
45812;SDS011;31519;45.408;10.962;2022-08-07T19:32:15;5.18;;;2.40;;
45812;SDS011;31519;45.408;10.962;2022-08-07T19:35:01;2.22;;;1.85;;
45812;SDS011;31519;45.408;10.962;2022-08-07T19:37:34;2.38;;;2.17;;
45812;SDS011;31519;45.408;10.962;2022-08-07T19:40:25;6.47;;;2.50;;
45812;SDS011;31519;45.408;10.962;2022-08-07T19:43:17;3.70;;;2.50;;
45812;SDS011;31519;45.408;10.962;2022-08-07T19:46:07;4.35;;;2.47;;
45812;SDS011;31519;45.408;10.962;2022-08-07T19:51:21;2.35;;;2.15;;
45812;SDS011;31519;45.408;10.962;2022-08-07T19:54:16;2.90;;;2.45;;
45812;SDS011;31519;45.408;10.962;2022-08-07T19:57:02;3.85;;;2.60;;
45812;SDS011;31519;45.408;10.962;2022-08-07T20:00:00;4.15;;;2.35;;
45812;SDS011;31519;45.408;10.962;2022-08-07T20:02:38;5.63;;;2.15;;
45812;SDS011;31519;45.408;10.962;2022-08-07T20:05:27;7.85;;;1.98;;
45812;SDS011;31519;45.408;10.962;2022-08-07T20:08:22;2.70;;;2.30;;
45812;SDS011;31519;45.408;10.962;2022-08-07T20:10:57;2.35;;;2.17;;
45812;SDS011;31519;45.408;10.962;2022-08-07T20:13:38;4.75;;;2.40;;
45812;SDS011;31519;45.408;10.962;2022-08-07T20:16:18;4.82;;;2.40;;